createdAt,value
2018-02-25T00:00:40.118Z,6.15
2018-02-25T00:03:07.661Z,6.30
2018-02-25T00:05:35.172Z,6.75
2018-02-25T00:08:02.709Z,5.28
2018-02-25T00:10:30.236Z,7.85
2018-02-25T00:12:57.768Z,4.82
2018-02-25T00:15:25.284Z,6.65
2018-02-25T00:17:52.798Z,5.95
2018-02-25T00:20:20.301Z,6.22
2018-02-25T00:22:47.826Z,5.43
2018-02-25T00:25:15.358Z,7.20
2018-02-25T00:27:43.673Z,6.25
2018-02-25T00:30:11.506Z,5.95
2018-02-25T00:32:39.813Z,6.30
2018-02-25T00:35:07.362Z,5.60
2018-02-25T00:37:34.895Z,5.90
2018-02-25T00:40:03.173Z,7.10
2018-02-25T00:42:31.598Z,6.25
2018-02-25T00:57:10.611Z,6.82
2018-02-25T01:02:31.883Z,5.65
2018-02-25T01:08:06.771Z,5.65
2018-02-25T01:10:34.286Z,5.40
2018-02-25T01:13:01.809Z,7.35
2018-02-25T01:15:29.343Z,5.25
2018-02-25T01:17:56.852Z,4.70
2018-02-25T01:20:24.374Z,7.00
2018-02-25T01:22:51.901Z,4.93
2018-02-25T01:25:19.440Z,5.78
2018-02-25T01:27:46.948Z,4.80
2018-02-25T01:30:14.460Z,5.47
2018-02-25T01:32:42.019Z,5.15
2018-02-25T01:35:09.532Z,5.57
2018-02-25T01:37:37.041Z,5.07
2018-02-25T01:40:04.555Z,4.72
2018-02-25T01:42:32.085Z,6.45
2018-02-25T01:45:00.390Z,4.95
2018-02-25T01:47:27.922Z,4.70
2018-02-25T01:49:55.446Z,5.43
2018-02-25T01:52:22.958Z,5.15
2018-02-25T01:54:50.538Z,5.45
2018-02-25T01:57:18.119Z,4.65
2018-02-25T01:59:45.605Z,4.35
2018-02-25T02:02:13.116Z,5.05
2018-02-25T02:04:40.654Z,5.78
2018-02-25T02:07:08.190Z,4.78
2018-02-25T02:09:35.719Z,5.78
2018-02-25T02:12:03.231Z,4.60
2018-02-25T02:14:30.746Z,4.28
2018-02-25T02:16:58.280Z,5.40
2018-02-25T02:19:25.789Z,4.90
2018-02-25T02:21:54.152Z,7.25
2018-02-25T02:24:21.664Z,5.60
2018-02-25T02:26:49.174Z,4.35
2018-02-25T02:29:16.699Z,5.12
2018-02-25T02:31:44.238Z,5.80
2018-02-25T02:34:11.772Z,6.45
2018-02-25T02:36:39.321Z,5.25
2018-02-25T02:39:07.625Z,5.57
2018-02-25T02:41:35.157Z,4.80
2018-02-25T02:44:03.451Z,4.97
2018-02-25T02:46:31.757Z,5.25
2018-02-25T02:48:59.288Z,5.53
2018-02-25T02:51:26.829Z,5.07
2018-02-25T02:53:55.139Z,5.40
2018-02-25T02:56:22.641Z,5.05
2018-02-25T02:58:50.162Z,5.47
2018-02-25T03:01:17.702Z,6.18
2018-02-25T03:03:46.008Z,5.43
2018-02-25T03:06:13.515Z,5.57
2018-02-25T03:08:41.047Z,5.37
2018-02-25T03:11:08.546Z,4.72
2018-02-25T03:13:36.831Z,6.12
2018-02-25T03:16:05.101Z,5.82
2018-02-25T03:18:33.368Z,6.22
2018-02-25T03:21:01.664Z,6.10
2018-02-25T03:23:29.942Z,5.57
2018-02-25T03:25:57.461Z,5.68
2018-02-25T03:28:24.997Z,5.93
2018-02-25T03:30:52.595Z,5.40
2018-02-25T03:33:20.159Z,5.28
2018-02-25T03:35:47.679Z,5.45
2018-02-25T03:38:15.180Z,6.45
2018-02-25T03:40:42.701Z,6.70
2018-02-25T03:43:10.242Z,6.18
2018-02-25T03:45:37.764Z,5.53
2018-02-25T03:48:05.271Z,5.35
2018-02-25T03:50:32.874Z,5.62
2018-02-25T03:53:00.397Z,5.70
2018-02-25T03:55:27.900Z,6.28
2018-02-25T03:57:56.177Z,5.78
2018-02-25T04:00:24.471Z,7.10
2018-02-25T04:02:52.771Z,5.65
2018-02-25T04:05:20.264Z,6.00
2018-02-25T04:07:47.794Z,7.57
2018-02-25T04:10:15.314Z,6.10
2018-02-25T04:12:43.606Z,6.87
2018-02-25T04:15:11.125Z,6.28
2018-02-25T04:17:38.624Z,4.87
2018-02-25T04:20:06.152Z,5.30
2018-02-25T04:22:33.674Z,6.32
2018-02-25T04:25:01.190Z,6.22
2018-02-25T04:27:28.794Z,5.65
2018-02-25T04:29:56.306Z,5.62
2018-02-25T04:32:23.826Z,6.18
2018-02-25T04:34:51.361Z,5.50
2018-02-25T04:37:18.871Z,6.22
2018-02-25T04:39:46.387Z,7.20
2018-02-25T04:42:13.902Z,7.35
2018-02-25T04:44:42.191Z,6.15
2018-02-25T04:47:09.745Z,6.60
2018-02-25T04:49:38.026Z,5.50
2018-02-25T04:52:05.539Z,6.72
2018-02-25T04:54:33.108Z,7.35
2018-02-25T04:57:00.663Z,6.60
2018-02-25T04:59:28.161Z,6.43
2018-02-25T05:01:56.428Z,6.18
2018-02-25T05:04:24.702Z,6.30
2018-02-25T05:06:52.232Z,6.60
2018-02-25T05:09:19.755Z,6.03
2018-02-25T05:11:47.296Z,5.90
2018-02-25T05:14:14.919Z,6.12
2018-02-25T05:16:42.439Z,7.87
2018-02-25T05:19:09.956Z,6.47
2018-02-25T05:21:37.481Z,7.10
2018-02-25T05:24:05.025Z,6.35
2018-02-25T05:26:32.546Z,5.90
2018-02-25T05:29:00.061Z,6.12
2018-02-25T05:31:27.599Z,6.05
2018-02-25T05:33:55.122Z,6.18
2018-02-25T05:36:22.638Z,6.28
2018-02-25T05:38:50.144Z,6.55
2018-02-25T05:41:18.510Z,6.30
2018-02-25T05:43:46.051Z,6.53
2018-02-25T05:46:13.578Z,6.62
2018-02-25T05:48:41.146Z,5.60
2018-02-25T05:51:08.671Z,7.35
2018-02-25T05:53:36.945Z,6.95
2018-02-25T05:56:05.226Z,7.22
2018-02-25T05:58:32.769Z,7.40
2018-02-25T06:01:00.298Z,6.50
2018-02-25T06:03:27.820Z,7.37
2018-02-25T06:05:55.341Z,5.68
2018-02-25T06:08:22.850Z,5.95
2018-02-25T06:10:50.439Z,6.65
2018-02-25T06:13:17.952Z,5.70
2018-02-25T06:15:45.479Z,8.25
2018-02-25T06:18:13.777Z,6.45
2018-02-25T06:20:41.304Z,8.10
2018-02-25T06:23:08.831Z,6.78
2018-02-25T06:25:36.362Z,7.05
2018-02-25T06:28:03.887Z,6.72
2018-02-25T06:30:31.398Z,7.50
2018-02-25T06:32:58.918Z,6.80
2018-02-25T06:35:27.201Z,6.68
2018-02-25T06:37:55.491Z,7.87
2018-02-25T06:40:23.004Z,6.40
2018-02-25T06:42:50.499Z,7.40
2018-02-25T06:45:18.038Z,7.10
2018-02-25T06:47:45.564Z,7.93
2018-02-25T06:50:13.080Z,8.23
2018-02-25T06:52:40.600Z,7.37
2018-02-25T06:55:08.108Z,8.88
2018-02-25T06:57:35.643Z,7.43
2018-02-25T07:00:03.171Z,7.62
2018-02-25T07:02:30.686Z,6.53
2018-02-25T07:04:58.232Z,7.65
2018-02-25T07:07:25.784Z,8.13
2018-02-25T07:09:54.038Z,7.45
2018-02-25T07:12:21.564Z,6.32
2018-02-25T07:14:49.074Z,7.12
2018-02-25T07:17:16.581Z,9.18
2018-02-25T07:19:44.092Z,9.55
2018-02-25T07:22:12.369Z,8.57
2018-02-25T07:24:40.642Z,7.85
2018-02-25T07:27:08.172Z,7.32
2018-02-25T07:29:35.687Z,7.50
2018-02-25T07:32:03.212Z,8.85
2018-02-25T07:34:30.761Z,7.30
2018-02-25T07:36:58.276Z,6.97
2018-02-25T07:39:25.804Z,7.60
2018-02-25T07:41:54.089Z,7.28
2018-02-25T07:44:22.406Z,6.95
2018-02-25T07:46:49.918Z,6.03
2018-02-25T07:49:17.422Z,7.45
2018-02-25T07:51:44.926Z,6.55
2018-02-25T07:54:12.455Z,6.35
2018-02-25T07:56:39.953Z,7.87
2018-02-25T07:59:07.486Z,6.30
2018-02-25T08:01:35.040Z,6.07
2018-02-25T08:04:02.606Z,6.60
2018-02-25T08:06:30.115Z,5.95
2018-02-25T08:08:57.674Z,4.80
2018-02-25T08:11:25.197Z,6.05
2018-02-25T08:13:52.740Z,5.95
2018-02-25T08:16:20.258Z,5.78
2018-02-25T08:18:47.827Z,5.22
2018-02-25T08:21:15.339Z,5.53
2018-02-25T08:23:42.868Z,6.22
2018-02-25T08:26:11.182Z,5.53
2018-02-25T08:28:38.711Z,5.93
2018-02-25T08:31:06.256Z,5.45
2018-02-25T08:33:33.792Z,5.90
2018-02-25T08:36:01.315Z,6.65
2018-02-25T08:38:28.874Z,5.70
2018-02-25T08:40:56.378Z,5.75
2018-02-25T08:43:23.914Z,5.97
2018-02-25T08:45:52.187Z,4.65
2018-02-25T08:48:19.710Z,5.78
2018-02-25T08:50:47.259Z,4.20
2018-02-25T08:53:14.823Z,4.03
2018-02-25T08:55:42.418Z,5.05
2018-02-25T08:58:09.989Z,5.25
2018-02-25T09:00:38.329Z,4.97
2018-02-25T09:03:05.871Z,5.00
2018-02-25T09:05:33.455Z,3.75
2018-02-25T09:08:01.099Z,4.30
2018-02-25T09:10:28.604Z,3.95
2018-02-25T09:12:56.309Z,4.32
2018-02-25T09:15:24.722Z,4.43
2018-02-25T09:17:52.257Z,4.12
2018-02-25T09:20:19.814Z,8.50
2018-02-25T09:22:47.384Z,5.22
2018-02-25T09:25:15.007Z,4.30
2018-02-25T09:27:42.559Z,4.60
2018-02-25T09:30:10.846Z,4.80
2018-02-25T09:32:38.387Z,4.37
2018-02-25T09:35:06.747Z,4.47
2018-02-25T09:37:34.328Z,4.80
2018-02-25T09:40:01.869Z,4.35
2018-02-25T09:42:29.381Z,4.90
2018-02-25T09:44:56.895Z,3.75
2018-02-25T09:47:24.430Z,4.95
2018-02-25T09:49:51.944Z,5.10
2018-02-25T09:52:19.473Z,4.20
2018-02-25T09:54:50.407Z,4.45
2018-02-25T09:57:17.951Z,5.12
2018-02-25T09:59:45.539Z,4.85
2018-02-25T10:02:13.053Z,4.70
2018-02-25T10:04:40.594Z,4.43
2018-02-25T10:07:08.136Z,4.00
2018-02-25T10:09:36.893Z,4.45
2018-02-25T10:12:04.401Z,4.57
2018-02-25T10:14:31.936Z,3.85
2018-02-25T10:16:59.448Z,6.12
2018-02-25T10:19:27.007Z,4.53
2018-02-25T10:21:54.524Z,5.78
2018-02-25T10:24:22.042Z,4.50
2018-02-25T10:26:49.582Z,5.45
2018-02-25T10:29:17.121Z,4.53
2018-02-25T10:31:44.643Z,3.97
2018-02-25T10:34:13.660Z,3.87
2018-02-25T10:36:41.184Z,3.10
2018-02-25T10:39:08.719Z,3.87
2018-02-25T10:41:36.228Z,4.00
2018-02-25T10:44:03.791Z,4.28
2018-02-25T10:46:32.063Z,3.90
2018-02-25T10:49:00.346Z,4.72
2018-02-25T10:51:27.872Z,5.20
2018-02-25T10:53:55.367Z,3.58
2018-02-25T10:56:22.871Z,4.47
2018-02-25T10:58:50.387Z,4.65
2018-02-25T11:01:17.892Z,4.22
2018-02-25T11:03:45.407Z,4.55
2018-02-25T11:06:12.930Z,4.97
2018-02-25T11:08:40.455Z,4.75
2018-02-25T11:28:27.801Z,4.55
2018-02-25T11:30:55.358Z,4.53
2018-02-25T11:33:22.903Z,4.53
2018-02-25T11:35:50.427Z,4.43
2018-02-25T11:38:18.713Z,4.97
2018-02-25T11:40:47.024Z,4.25
2018-02-25T11:43:14.551Z,4.20
2018-02-25T11:45:42.094Z,3.55
2018-02-25T11:48:09.600Z,4.15
2018-02-25T11:50:37.119Z,4.68
2018-02-25T11:53:04.620Z,4.75
2018-02-25T11:55:32.678Z,5.40
2018-02-25T11:58:00.196Z,4.95
2018-02-25T12:00:27.697Z,5.60
2018-02-25T12:02:55.367Z,5.12
2018-02-25T12:05:26.153Z,5.37
2018-02-25T12:07:53.687Z,4.45
2018-02-25T12:10:21.228Z,4.28
2018-02-25T12:12:48.756Z,4.30
2018-02-25T12:15:16.306Z,3.95
2018-02-25T12:17:43.848Z,3.55
2018-02-25T12:20:11.433Z,4.50
2018-02-25T12:22:39.746Z,4.50
2018-02-25T12:25:07.252Z,4.60
2018-02-25T12:27:34.758Z,4.25
2018-02-25T12:30:02.315Z,5.03
2018-02-25T12:32:29.843Z,4.47
2018-02-25T12:34:57.364Z,3.90
2018-02-25T12:37:24.933Z,4.05
2018-02-25T12:39:52.453Z,4.37
2018-02-25T12:42:19.965Z,4.65
2018-02-25T12:44:47.471Z,4.37
2018-02-25T12:47:15.033Z,4.30
2018-02-25T12:49:42.549Z,3.87
2018-02-25T12:52:10.868Z,4.70
2018-02-25T12:54:38.385Z,4.60
2018-02-25T12:57:05.894Z,4.57
2018-02-25T12:59:33.459Z,3.80
2018-02-25T13:02:01.011Z,4.78
2018-02-25T13:04:28.540Z,3.55
2018-02-25T13:06:56.824Z,3.65
2018-02-25T13:09:24.350Z,4.30
2018-02-25T13:11:51.859Z,3.33
2018-02-25T13:14:19.384Z,4.18
2018-02-25T13:16:47.698Z,4.30
2018-02-25T13:19:15.220Z,3.80
2018-02-25T13:21:42.734Z,3.95
2018-02-25T13:24:10.304Z,3.65
2018-02-25T13:26:37.823Z,3.62
2018-02-25T13:29:05.424Z,3.78
2018-02-25T13:31:32.969Z,2.90
2018-02-25T13:34:00.474Z,4.75
2018-02-25T13:36:27.990Z,3.65
2018-02-25T13:38:55.502Z,4.43
2018-02-25T13:41:23.012Z,4.18
2018-02-25T13:43:50.539Z,4.40
2018-02-25T13:46:18.040Z,3.55
2018-02-25T13:48:45.556Z,3.92
2018-02-25T13:51:13.075Z,6.62
2018-02-25T13:53:40.570Z,8.32
2018-02-25T13:56:08.084Z,4.15
2018-02-25T13:58:35.697Z,3.90
2018-02-25T14:01:03.217Z,7.30
2018-02-25T14:03:30.728Z,3.70
2018-02-25T14:05:58.269Z,3.70
2018-02-25T14:08:26.536Z,4.93
2018-02-25T14:10:54.833Z,3.60
2018-02-25T14:13:22.352Z,3.80
2018-02-25T14:15:49.860Z,4.28
2018-02-25T14:18:17.385Z,3.40
2018-02-25T14:20:45.690Z,3.83
2018-02-25T14:23:13.205Z,3.53
2018-02-25T14:25:40.726Z,3.65
2018-02-25T14:28:08.250Z,3.87
2018-02-25T14:30:36.526Z,4.07
2018-02-25T14:33:04.796Z,5.30
2018-02-25T14:35:33.081Z,5.12
2018-02-25T14:38:01.354Z,6.53
2018-02-25T14:40:29.627Z,8.70
2018-02-25T14:42:57.915Z,5.10
2018-02-25T14:45:26.178Z,4.05
2018-02-25T14:47:54.456Z,4.72
2018-02-25T14:50:22.744Z,3.78
2018-02-25T14:52:51.014Z,4.55
2018-02-25T14:55:19.288Z,3.20
2018-02-25T14:57:47.576Z,3.03
2018-02-25T15:00:15.915Z,4.07
2018-02-25T15:02:43.413Z,3.80
2018-02-25T15:05:10.930Z,3.20
2018-02-25T15:07:38.436Z,3.25
2018-02-25T15:10:05.956Z,3.05
2018-02-25T15:12:33.534Z,5.28
2018-02-25T15:15:01.224Z,3.50
2018-02-25T15:17:28.735Z,3.20
2018-02-25T15:19:56.259Z,3.35
2018-02-25T15:22:23.901Z,3.33
2018-02-25T15:24:52.322Z,3.78
2018-02-25T15:27:19.852Z,3.30
2018-02-25T15:29:47.481Z,4.05
2018-02-25T15:32:14.992Z,4.85
2018-02-25T15:34:42.537Z,4.03
2018-02-25T15:37:11.034Z,3.58
2018-02-25T15:39:38.539Z,3.40
2018-02-25T15:42:06.036Z,4.20
2018-02-25T15:44:33.554Z,3.22
2018-02-25T15:47:01.834Z,3.65
2018-02-25T15:49:30.139Z,4.15
2018-02-25T15:51:57.643Z,3.20
2018-02-25T15:54:25.168Z,4.15
2018-02-25T15:56:52.692Z,2.80
2018-02-25T15:59:20.998Z,3.95
2018-02-25T16:01:48.527Z,4.15
2018-02-25T16:04:16.106Z,4.30
2018-02-25T16:06:43.653Z,3.60
2018-02-25T16:09:11.164Z,4.35
2018-02-25T16:11:39.530Z,6.18
2018-02-25T16:14:07.050Z,4.22
2018-02-25T16:16:34.563Z,5.47
2018-02-25T16:19:02.083Z,5.15
2018-02-25T16:21:29.614Z,6.15
2018-02-25T16:23:57.132Z,6.00
2018-02-25T16:26:24.653Z,4.50
2018-02-25T16:28:52.934Z,6.15
2018-02-25T16:31:21.250Z,4.53
2018-02-25T16:33:48.778Z,5.25
2018-02-25T16:36:16.306Z,5.22
2018-02-25T16:38:43.831Z,6.62
2018-02-25T16:41:11.328Z,4.70
2018-02-25T16:43:38.846Z,8.63
2018-02-25T16:46:06.361Z,5.35
2018-02-25T16:48:34.656Z,5.40
2018-02-25T16:51:02.258Z,4.50
2018-02-25T16:53:29.767Z,4.65
2018-02-25T16:55:57.305Z,6.20
2018-02-25T16:58:24.811Z,6.10
2018-02-25T17:00:52.336Z,7.45
2018-02-25T17:03:20.848Z,6.05
2018-02-25T17:05:48.635Z,5.53
2018-02-25T17:08:16.166Z,4.50
2018-02-25T17:10:43.682Z,7.78
2018-02-25T17:13:11.232Z,6.40
2018-02-25T17:15:38.758Z,4.80
2018-02-25T17:18:06.268Z,5.43
2018-02-25T17:20:33.794Z,6.25
2018-02-25T17:23:01.341Z,5.20
2018-02-25T17:25:28.895Z,5.90
2018-02-25T17:27:56.431Z,5.28
2018-02-25T17:30:24.714Z,5.30
2018-02-25T17:32:52.289Z,5.72
2018-02-25T17:35:19.844Z,5.45
2018-02-25T17:37:47.372Z,5.20
2018-02-25T17:40:14.899Z,5.78
2018-02-25T17:42:42.401Z,4.90
2018-02-25T17:45:10.676Z,5.30
2018-02-25T17:47:38.954Z,6.70
2018-02-25T17:50:07.215Z,8.32
2018-02-25T17:52:34.734Z,6.90
2018-02-25T17:55:02.284Z,7.00
2018-02-25T17:57:29.834Z,7.53
2018-02-25T17:59:57.358Z,7.43
2018-02-25T18:02:24.872Z,9.70
2018-02-25T18:04:52.422Z,10.05
2018-02-25T18:07:19.996Z,8.32
2018-02-25T18:09:47.564Z,8.30
2018-02-25T18:12:15.088Z,8.38
2018-02-25T18:14:42.675Z,9.88
2018-02-25T18:17:10.231Z,10.30
2018-02-25T18:19:37.813Z,11.50
2018-02-25T18:22:05.352Z,7.90
2018-02-25T18:24:32.918Z,8.55
2018-02-25T18:27:00.459Z,8.40
2018-02-25T18:29:28.036Z,11.35
2018-02-25T18:31:55.603Z,8.73
2018-02-25T18:34:23.244Z,10.32
2018-02-25T18:36:50.809Z,8.82
2018-02-25T18:39:18.356Z,10.20
2018-02-25T18:41:45.903Z,9.65
2018-02-25T18:44:13.442Z,10.23
2018-02-25T18:46:41.042Z,9.32
2018-02-25T18:49:08.596Z,9.30
2018-02-25T18:51:36.158Z,8.98
2018-02-25T18:54:03.760Z,8.45
2018-02-25T18:56:31.465Z,13.40
2018-02-25T18:58:59.280Z,8.30
2018-02-25T19:01:27.207Z,8.52
2018-02-25T19:03:54.813Z,8.20
2018-02-25T19:06:22.524Z,8.60
2018-02-25T19:08:50.411Z,8.48
2018-02-25T19:11:19.174Z,10.25
2018-02-25T19:13:47.123Z,8.45
2018-02-25T19:16:15.835Z,8.13
2018-02-25T19:18:43.557Z,7.80
2018-02-25T19:21:12.465Z,8.38
2018-02-25T19:23:40.241Z,9.73
2018-02-25T19:26:07.924Z,8.20
2018-02-25T19:28:35.592Z,9.65
2018-02-25T19:31:03.580Z,8.95
2018-02-25T19:33:31.522Z,8.70
2018-02-25T19:36:05.170Z,9.63
2018-02-25T19:38:38.872Z,8.45
2018-02-25T19:41:12.311Z,9.77
2018-02-25T19:43:41.013Z,9.70
2018-02-25T19:46:08.799Z,7.85
2018-02-25T19:48:37.167Z,7.05
2018-02-25T19:51:05.500Z,7.95
2018-02-25T19:53:33.410Z,8.52
2018-02-25T19:56:01.367Z,7.80
2018-02-25T19:58:29.300Z,9.02
2018-02-25T20:00:57.236Z,8.80
2018-02-25T20:03:24.992Z,8.38
2018-02-25T20:05:52.972Z,8.60
2018-02-25T20:08:20.644Z,10.30
2018-02-25T20:10:48.429Z,9.35
2018-02-25T20:13:16.085Z,10.43
2018-02-25T20:15:43.797Z,9.98
2018-02-25T20:18:11.444Z,11.70
2018-02-25T20:20:39.083Z,11.73
2018-02-25T20:23:06.644Z,10.57
2018-02-25T20:25:34.233Z,10.25
2018-02-25T20:28:01.763Z,11.38
2018-02-25T20:30:29.403Z,11.23
2018-02-25T20:32:57.016Z,10.55
2018-02-25T20:35:24.542Z,9.85
2018-02-25T20:37:52.074Z,9.43
2018-02-25T20:40:19.718Z,10.32
2018-02-25T20:42:47.252Z,11.12
2018-02-25T20:45:15.574Z,12.48
2018-02-25T20:47:43.118Z,11.73
2018-02-25T20:50:10.696Z,8.98
2018-02-25T20:52:38.241Z,9.65
2018-02-25T20:55:05.777Z,9.77
2018-02-25T20:57:33.302Z,9.18
2018-02-25T21:00:00.838Z,10.40
2018-02-25T21:02:28.359Z,12.05
2018-02-25T21:04:56.664Z,11.85
2018-02-25T21:07:24.195Z,9.98
2018-02-25T21:09:52.505Z,10.60
2018-02-25T21:12:20.045Z,9.27
2018-02-25T21:15:16.831Z,10.05
2018-02-25T21:17:47.432Z,14.60
2018-02-25T21:20:16.416Z,11.05
2018-02-25T21:22:46.830Z,9.68
2018-02-25T21:25:23.995Z,12.60
2018-02-25T21:27:56.889Z,9.55
2018-02-25T21:30:31.017Z,9.88
2018-02-25T21:33:00.329Z,11.25
2018-02-25T21:35:27.908Z,10.88
2018-02-25T21:37:55.458Z,8.80
2018-02-25T21:40:22.984Z,9.57
2018-02-25T21:42:51.305Z,10.45
2018-02-25T21:45:18.863Z,11.12
2018-02-25T21:47:46.396Z,11.27
2018-02-25T21:50:14.789Z,11.43
2018-02-25T21:52:45.123Z,12.60
2018-02-25T21:55:12.654Z,11.25
2018-02-25T21:57:46.535Z,12.00
2018-02-25T22:00:14.032Z,9.73
2018-02-25T22:02:47.265Z,10.90
2018-02-25T22:05:14.811Z,10.45
2018-02-25T22:07:42.331Z,11.32
2018-02-25T22:10:09.849Z,12.00
2018-02-25T22:12:37.368Z,11.20
2018-02-25T22:15:04.928Z,11.20
2018-02-25T22:17:32.450Z,11.43
2018-02-25T22:19:59.980Z,9.70
2018-02-25T22:22:27.573Z,11.93
2018-02-25T22:24:55.106Z,13.40
2018-02-25T22:27:22.667Z,12.65
2018-02-25T22:29:50.187Z,12.45
2018-02-25T22:32:17.752Z,12.05
2018-02-25T22:34:45.486Z,14.35
2018-02-25T22:37:13.038Z,12.98
2018-02-25T22:39:40.594Z,13.45
2018-02-25T22:42:08.132Z,14.13
2018-02-25T22:44:35.693Z,13.25
2018-02-25T22:47:03.208Z,16.98
2018-02-25T22:49:31.494Z,15.18
2018-02-25T22:51:59.051Z,13.55
2018-02-25T22:54:26.603Z,18.33
2018-02-25T22:56:54.142Z,15.60
2018-02-25T22:59:21.667Z,17.02
2018-02-25T23:01:49.206Z,14.52
2018-02-25T23:04:16.749Z,15.60
2018-02-25T23:06:44.324Z,18.62
2018-02-25T23:09:13.020Z,15.32
2018-02-25T23:11:40.542Z,17.35
2018-02-25T23:14:08.060Z,16.02
2018-02-25T23:16:35.591Z,14.65
2018-02-25T23:19:03.115Z,13.02
2018-02-25T23:21:30.692Z,14.65
2018-02-25T23:23:58.235Z,14.60
2018-02-25T23:26:25.770Z,14.32
2018-02-25T23:28:53.316Z,13.40
2018-02-25T23:31:20.833Z,11.98
2018-02-25T23:33:48.429Z,13.73
2018-02-25T23:36:16.007Z,13.55
2018-02-25T23:38:43.558Z,12.98
2018-02-25T23:41:11.115Z,15.68
2018-02-25T23:43:38.656Z,15.38
2018-02-25T23:46:06.216Z,14.80
2018-02-25T23:48:33.734Z,12.82
